createdAt,value
2019-02-28T00:02:26.915Z,8.80
2019-02-28T00:04:55.765Z,20.47
2019-02-28T00:07:24.519Z,15.53
2019-02-28T00:09:53.391Z,13.03
2019-02-28T00:12:22.255Z,18.63
2019-02-28T00:14:51.064Z,16.73
2019-02-28T00:17:19.870Z,16.37
2019-02-28T00:19:48.645Z,17.75
2019-02-28T00:22:17.454Z,19.63
2019-02-28T00:24:46.296Z,13.13
2019-02-28T00:27:15.094Z,14.53
2019-02-28T00:29:43.893Z,14.00
2019-02-28T00:32:12.690Z,16.73
2019-02-28T00:34:41.473Z,28.60
2019-02-28T00:37:10.269Z,12.15
2019-02-28T00:39:42.047Z,19.47
2019-02-28T00:42:10.864Z,17.30
2019-02-28T00:44:39.646Z,20.50
2019-02-28T00:47:08.427Z,15.87
2019-02-28T00:49:37.222Z,13.23
2019-02-28T00:52:06.086Z,13.80
2019-02-28T00:54:34.876Z,16.10
2019-02-28T00:57:03.661Z,21.50
2019-02-28T00:59:32.538Z,18.30
2019-02-28T01:02:01.540Z,11.68
2019-02-28T01:04:30.888Z,13.93
2019-02-28T01:06:59.746Z,13.37
2019-02-28T01:09:30.160Z,13.93
2019-02-28T01:11:59.051Z,15.50
2019-02-28T01:14:27.825Z,9.90
2019-02-28T01:16:56.627Z,15.83
2019-02-28T01:19:25.519Z,13.07
2019-02-28T01:21:55.432Z,17.40
2019-02-28T01:24:25.012Z,13.53
2019-02-28T01:26:53.850Z,16.23
2019-02-28T01:29:22.629Z,15.50
2019-02-28T01:31:51.493Z,20.00
2019-02-28T01:34:20.275Z,15.90
2019-02-28T01:36:49.594Z,11.00
2019-02-28T01:39:18.329Z,12.87
2019-02-28T01:41:47.163Z,11.50
2019-02-28T01:44:16.053Z,16.47
2019-02-28T01:46:44.856Z,13.83
2019-02-28T01:49:13.634Z,15.50
2019-02-28T01:51:42.427Z,19.73
2019-02-28T01:54:11.206Z,15.00
2019-02-28T01:56:40.108Z,9.20
2019-02-28T01:59:09.269Z,21.00
2019-02-28T02:01:38.196Z,17.47
2019-02-28T02:04:06.989Z,15.20
2019-02-28T02:06:36.006Z,17.43
2019-02-28T02:09:08.141Z,13.43
2019-02-28T02:11:36.784Z,17.98
2019-02-28T02:14:07.453Z,14.23
2019-02-28T02:16:36.225Z,14.13
2019-02-28T02:19:05.145Z,27.33
2019-02-28T02:21:34.873Z,14.75
2019-02-28T02:24:04.693Z,13.40
2019-02-28T02:26:33.547Z,15.88
2019-02-28T02:29:02.346Z,13.87
2019-02-28T02:31:31.194Z,12.63
2019-02-28T02:34:00.002Z,23.10
2019-02-28T02:36:28.787Z,19.70
2019-02-28T02:38:57.567Z,15.17
2019-02-28T02:41:26.346Z,14.20
2019-02-28T02:43:56.042Z,15.50
2019-02-28T02:46:24.836Z,19.33
2019-02-28T02:48:53.614Z,16.07
2019-02-28T02:51:22.389Z,16.50
2019-02-28T02:53:51.168Z,16.03
2019-02-28T02:56:20.169Z,14.53
2019-02-28T02:58:48.958Z,14.73
2019-02-28T03:01:17.761Z,9.53
2019-02-28T03:03:46.636Z,13.07
2019-02-28T03:06:15.447Z,10.60
2019-02-28T03:08:44.420Z,10.70
2019-02-28T03:11:13.355Z,15.43
2019-02-28T03:13:43.972Z,18.90
2019-02-28T03:16:12.911Z,11.90
2019-02-28T03:18:41.733Z,11.53
2019-02-28T03:21:15.067Z,14.73
2019-02-28T03:23:41.198Z,14.13
2019-02-28T03:26:09.969Z,20.63
2019-02-28T03:28:38.756Z,12.70
2019-02-28T03:31:14.219Z,18.23
2019-02-28T03:33:38.181Z,12.17
2019-02-28T03:36:07.347Z,14.85
2019-02-28T03:38:36.128Z,8.15
2019-02-28T03:41:05.063Z,9.67
2019-02-28T03:43:33.922Z,16.00
2019-02-28T03:46:06.481Z,14.20
2019-02-28T03:48:35.967Z,10.83
2019-02-28T03:51:03.718Z,7.50
2019-02-28T03:53:32.581Z,9.90
2019-02-28T03:56:01.420Z,12.17
2019-02-28T03:58:30.371Z,15.50
2019-02-28T04:00:59.228Z,13.27
2019-02-28T04:03:33.333Z,15.28
2019-02-28T04:06:03.370Z,18.73
2019-02-28T04:08:30.503Z,14.80
2019-02-28T04:10:59.525Z,9.27
2019-02-28T04:13:28.318Z,9.53
2019-02-28T04:16:08.325Z,12.67
2019-02-28T04:18:27.669Z,9.78
2019-02-28T04:20:56.668Z,15.67
2019-02-28T04:23:25.489Z,11.07
2019-02-28T04:25:56.998Z,9.60
2019-02-28T04:28:24.771Z,15.20
2019-02-28T04:30:53.671Z,15.47
2019-02-28T04:33:22.440Z,9.57
2019-02-28T04:35:51.349Z,19.57
2019-02-28T04:38:21.399Z,13.57
2019-02-28T04:40:50.192Z,8.20
2019-02-28T04:43:19.073Z,10.40
2019-02-28T04:45:47.879Z,13.38
2019-02-28T04:48:16.654Z,12.03
2019-02-28T04:50:45.441Z,13.43
2019-02-28T04:53:14.233Z,14.20
2019-02-28T04:55:43.123Z,17.87
2019-02-28T04:58:11.885Z,15.47
2019-02-28T05:00:40.743Z,7.47
2019-02-28T05:03:09.522Z,12.68
2019-02-28T05:05:38.299Z,11.20
2019-02-28T05:08:07.087Z,18.30
2019-02-28T05:10:35.854Z,11.83
2019-02-28T05:13:04.705Z,9.43
2019-02-28T05:15:37.394Z,13.97
2019-02-28T05:18:04.089Z,13.80
2019-02-28T05:20:32.955Z,17.57
2019-02-28T05:23:02.676Z,16.40
2019-02-28T05:25:31.688Z,21.60
2019-02-28T05:28:00.679Z,18.20
2019-02-28T05:30:29.460Z,9.93
2019-02-28T05:32:58.327Z,13.73
2019-02-28T05:35:27.132Z,14.47
2019-02-28T05:37:55.922Z,14.33
2019-02-28T05:40:24.698Z,7.33
2019-02-28T05:42:54.673Z,13.07
2019-02-28T05:45:24.089Z,23.83
2019-02-28T05:47:52.848Z,20.10
2019-02-28T05:50:21.614Z,15.75
2019-02-28T05:52:50.407Z,14.00
2019-02-28T05:55:24.431Z,20.17
2019-02-28T05:57:49.818Z,16.33
2019-02-28T06:00:19.999Z,21.53
2019-02-28T06:02:48.964Z,22.73
2019-02-28T06:05:17.755Z,13.50
2019-02-28T06:07:46.570Z,17.98
2019-02-28T06:10:15.542Z,30.60
2019-02-28T06:12:45.027Z,41.53
2019-02-28T06:15:15.426Z,38.30
2019-02-28T06:17:44.390Z,24.73
2019-02-28T06:20:16.203Z,16.52
2019-02-28T06:22:45.156Z,15.45
2019-02-28T06:25:22.655Z,13.60
2019-02-28T06:27:49.056Z,30.27
2019-02-28T06:30:16.026Z,14.80
2019-02-28T06:32:44.845Z,16.33
2019-02-28T06:35:17.784Z,20.60
2019-02-28T06:37:45.103Z,21.87
2019-02-28T06:40:14.253Z,19.03
2019-02-28T06:42:43.448Z,12.63
2019-02-28T06:45:14.452Z,11.73
2019-02-28T06:47:47.972Z,15.30
2019-02-28T06:50:14.169Z,14.27
2019-02-28T06:52:43.089Z,19.83
2019-02-28T06:55:15.559Z,22.37
2019-02-28T06:57:44.343Z,20.60
2019-02-28T07:00:14.152Z,16.60
2019-02-28T07:02:43.062Z,15.43
2019-02-28T07:05:12.101Z,28.83
2019-02-28T07:07:40.882Z,19.67
2019-02-28T07:10:12.697Z,14.73
2019-02-28T07:12:41.144Z,18.10
2019-02-28T07:15:10.180Z,16.10
2019-02-28T07:17:39.122Z,15.43
2019-02-28T07:20:10.152Z,20.37
2019-02-28T07:22:40.095Z,12.07
2019-02-28T07:25:09.444Z,16.97
2019-02-28T07:27:39.707Z,12.27
2019-02-28T07:30:17.269Z,13.63
2019-02-28T07:32:42.183Z,11.80
2019-02-28T07:35:11.128Z,17.73
2019-02-28T07:37:40.236Z,13.00
2019-02-28T07:40:15.561Z,9.90
2019-02-28T07:42:40.870Z,9.57
2019-02-28T07:45:12.137Z,15.77
2019-02-28T07:47:41.136Z,17.70
2019-02-28T07:50:10.855Z,11.53
2019-02-28T07:52:40.192Z,9.30
2019-02-28T07:55:10.116Z,16.90
2019-02-28T07:57:39.079Z,15.27
2019-02-28T08:00:16.753Z,12.40
2019-02-28T08:02:42.261Z,13.13
2019-02-28T08:05:12.230Z,21.90
2019-02-28T08:07:41.104Z,15.77
2019-02-28T08:10:12.735Z,13.00
2019-02-28T08:12:42.736Z,9.40
2019-02-28T08:15:14.967Z,9.73
2019-02-28T08:17:44.702Z,9.90
2019-02-28T08:20:14.261Z,15.07
2019-02-28T08:22:43.019Z,12.13
2019-02-28T08:25:12.562Z,10.27
2019-02-28T08:27:41.349Z,12.50
2019-02-28T08:30:16.349Z,17.87
2019-02-28T08:32:46.877Z,11.27
2019-02-28T08:35:15.098Z,11.20
2019-02-28T08:37:44.102Z,19.10
2019-02-28T08:40:17.252Z,13.10
2019-02-28T08:42:46.224Z,9.03
2019-02-28T08:45:15.391Z,14.00
2019-02-28T08:47:44.337Z,11.63
2019-02-28T08:50:19.129Z,9.83
2019-02-28T08:52:48.380Z,10.77
2019-02-28T08:55:17.256Z,11.28
2019-02-28T08:57:54.428Z,14.70
2019-02-28T09:00:18.065Z,14.57
2019-02-28T09:02:52.267Z,19.83
2019-02-28T09:05:17.617Z,17.77
2019-02-28T09:07:50.929Z,19.55
2019-02-28T09:10:18.897Z,13.87
2019-02-28T09:12:48.103Z,15.37
2019-02-28T09:15:17.487Z,17.70
2019-02-28T09:17:46.415Z,19.33
2019-02-28T09:20:15.488Z,20.57
2019-02-28T09:22:44.713Z,21.70
2019-02-28T09:25:14.835Z,19.97
2019-02-28T09:27:43.893Z,25.80
2019-02-28T09:30:19.062Z,21.50
2019-02-28T09:32:48.167Z,20.90
2019-02-28T09:35:17.792Z,21.27
2019-02-28T09:37:46.641Z,25.67
2019-02-28T09:40:15.801Z,24.30
2019-02-28T09:42:47.885Z,29.00
2019-02-28T09:45:17.271Z,25.43
2019-02-28T09:47:46.159Z,27.77
2019-02-28T09:50:19.400Z,24.33
2019-02-28T09:52:47.720Z,28.25
2019-02-28T09:55:16.582Z,28.50
2019-02-28T09:57:45.388Z,27.43
2019-02-28T10:00:16.523Z,23.27
2019-02-28T10:02:45.727Z,21.27
2019-02-28T10:05:14.897Z,21.83
2019-02-28T10:07:43.935Z,24.67
2019-02-28T10:10:17.450Z,28.20
2019-02-28T10:12:45.861Z,37.60
2019-02-28T10:15:16.547Z,19.97
2019-02-28T10:17:45.645Z,54.77
2019-02-28T10:20:16.902Z,23.63
2019-02-28T10:22:47.328Z,25.03
2019-02-28T10:25:17.033Z,30.23
2019-02-28T10:27:46.046Z,31.13
2019-02-28T10:30:17.239Z,25.73
2019-02-28T10:32:46.272Z,24.83
2019-02-28T10:35:15.451Z,17.20
2019-02-28T10:37:44.443Z,59.33
2019-02-28T10:40:17.767Z,18.00
2019-02-28T10:42:46.815Z,21.30
2019-02-28T10:45:15.985Z,18.83
2019-02-28T10:47:44.883Z,12.67
2019-02-28T10:50:18.682Z,15.33
2019-02-28T10:52:47.989Z,21.33
2019-02-28T10:55:19.370Z,24.70
2019-02-28T10:57:48.988Z,19.57
2019-02-28T11:00:32.879Z,18.63
2019-02-28T11:03:01.323Z,22.03
2019-02-28T11:05:31.801Z,23.07
2019-02-28T11:08:01.562Z,16.17
2019-02-28T11:10:35.523Z,18.97
2019-02-28T11:13:03.613Z,24.53
2019-02-28T11:15:32.534Z,17.70
2019-02-28T11:18:01.487Z,19.70
2019-02-28T11:20:30.438Z,21.97
2019-02-28T11:22:59.583Z,18.35
2019-02-28T11:25:34.591Z,21.87
2019-02-28T11:28:00.191Z,17.27
2019-02-28T11:30:29.231Z,16.93
2019-02-28T11:33:03.064Z,14.87
2019-02-28T11:35:29.425Z,28.00
2019-02-28T11:37:58.357Z,15.90
2019-02-28T11:40:29.201Z,26.60
2019-02-28T11:43:02.611Z,15.50
2019-02-28T11:45:30.311Z,14.50
2019-02-28T11:48:00.486Z,16.43
2019-02-28T11:50:29.540Z,20.08
2019-02-28T11:53:03.258Z,19.43
2019-02-28T11:55:28.989Z,18.40
2019-02-28T11:57:58.630Z,15.73
2019-02-28T12:00:29.020Z,16.90
2019-02-28T12:03:00.831Z,26.50
2019-02-28T12:05:29.095Z,15.87
2019-02-28T12:07:58.026Z,17.80
2019-02-28T12:10:27.893Z,15.00
2019-02-28T12:12:56.941Z,30.32
2019-02-28T12:15:26.783Z,17.63
2019-02-28T12:17:55.663Z,19.97
2019-02-28T12:20:26.561Z,31.05
2019-02-28T12:22:55.898Z,18.90
2019-02-28T12:25:25.722Z,19.48
2019-02-28T12:27:55.487Z,19.10
2019-02-28T12:30:26.235Z,17.30
2019-02-28T12:32:55.702Z,19.35
2019-02-28T12:35:24.577Z,15.53
2019-02-28T12:37:54.213Z,14.80
2019-02-28T12:40:25.781Z,14.28
2019-02-28T12:42:54.660Z,22.33
2019-02-28T12:45:26.294Z,14.97
2019-02-28T12:47:56.191Z,18.12
2019-02-28T12:50:29.461Z,14.35
2019-02-28T12:52:58.647Z,23.27
2019-02-28T12:55:27.534Z,21.43
2019-02-28T12:57:57.843Z,17.80
2019-02-28T13:00:29.826Z,17.33
2019-02-28T13:02:58.869Z,16.30
2019-02-28T13:05:27.748Z,15.10
2019-02-28T13:07:56.935Z,16.23
2019-02-28T13:10:28.010Z,14.57
2019-02-28T13:13:05.617Z,22.58
2019-02-28T13:15:27.925Z,18.83
2019-02-28T13:17:57.207Z,19.48
2019-02-28T13:20:32.184Z,19.60
2019-02-28T13:22:59.535Z,21.20
2019-02-28T13:25:28.134Z,23.03
2019-02-28T13:27:57.847Z,19.75
2019-02-28T13:30:27.723Z,13.43
2019-02-28T13:32:57.686Z,20.25
2019-02-28T13:35:28.382Z,17.17
2019-02-28T13:37:57.994Z,20.65
2019-02-28T13:40:28.015Z,17.60
2019-02-28T13:42:56.858Z,15.00
2019-02-28T13:45:26.468Z,14.53
2019-02-28T13:47:55.448Z,21.20
2019-02-28T13:50:26.818Z,16.00
2019-02-28T13:52:56.461Z,18.60
2019-02-28T13:55:25.885Z,18.90
2019-02-28T13:57:54.844Z,13.10
2019-02-28T14:00:25.987Z,15.67
2019-02-28T14:02:59.730Z,18.50
2019-02-28T14:05:29.901Z,12.00
2019-02-28T14:07:59.104Z,20.92
2019-02-28T14:10:29.655Z,20.54
2019-02-28T14:12:59.958Z,15.10
2019-02-28T14:15:31.832Z,15.03
2019-02-28T14:18:00.663Z,18.90
2019-02-28T14:20:29.462Z,15.43
2019-02-28T14:22:58.532Z,15.68
2019-02-28T14:25:27.397Z,15.00
2019-02-28T14:27:56.974Z,20.37
2019-02-28T14:30:27.480Z,19.00
2019-02-28T14:32:56.543Z,14.10
2019-02-28T14:35:26.319Z,17.47
2019-02-28T14:37:56.597Z,13.30
2019-02-28T14:40:25.723Z,16.80
2019-02-28T14:42:54.534Z,14.23
2019-02-28T14:45:23.406Z,15.10
2019-02-28T14:47:56.798Z,12.63
2019-02-28T14:50:23.413Z,16.07
2019-02-28T14:52:53.472Z,14.17
2019-02-28T14:55:22.508Z,11.37
2019-02-28T14:57:51.735Z,16.43
2019-02-28T15:00:24.624Z,12.33
2019-02-28T15:02:53.431Z,16.37
2019-02-28T15:05:22.373Z,15.57
2019-02-28T15:07:51.286Z,17.90
2019-02-28T15:10:20.464Z,15.43
2019-02-28T15:12:49.576Z,14.70
2019-02-28T15:15:19.112Z,16.77
2019-02-28T15:17:48.354Z,19.57
2019-02-28T15:20:17.643Z,15.10
2019-02-28T15:22:46.656Z,22.02
2019-02-28T15:25:18.654Z,13.58
2019-02-28T15:27:47.129Z,18.30
2019-02-28T15:30:18.520Z,17.13
2019-02-28T15:32:47.309Z,21.23
2019-02-28T15:35:17.409Z,19.17
2019-02-28T15:37:46.278Z,16.53
2019-02-28T15:40:17.471Z,22.13
2019-02-28T15:42:46.466Z,14.47
2019-02-28T15:45:15.537Z,26.80
2019-02-28T15:47:44.386Z,20.70
2019-02-28T15:50:16.300Z,18.47
2019-02-28T15:52:45.760Z,19.30
2019-02-28T15:55:15.255Z,13.80
2019-02-28T15:57:44.294Z,17.07
2019-02-28T16:00:22.146Z,13.67
2019-02-28T16:02:50.324Z,16.07
2019-02-28T16:05:19.600Z,17.00
2019-02-28T16:07:50.473Z,16.80
2019-02-28T16:10:21.092Z,17.35
2019-02-28T16:12:51.152Z,18.40
2019-02-28T16:15:20.008Z,13.23
2019-02-28T16:17:48.891Z,16.02
2019-02-28T16:20:17.963Z,15.70
2019-02-28T16:22:52.121Z,21.83
2019-02-28T16:25:20.337Z,11.63
2019-02-28T16:27:49.193Z,15.05
2019-02-28T16:30:18.445Z,15.73
2019-02-28T16:32:49.127Z,10.65
2019-02-28T16:35:17.974Z,9.83
2019-02-28T16:37:46.823Z,12.63
2019-02-28T16:40:16.989Z,12.90
2019-02-28T16:42:46.442Z,13.53
2019-02-28T16:45:27.887Z,14.28
2019-02-28T16:47:59.570Z,11.97
2019-02-28T16:50:27.598Z,13.00
2019-02-28T16:52:56.470Z,10.77
2019-02-28T16:55:27.426Z,12.07
2019-02-28T16:57:55.921Z,14.30
2019-02-28T17:00:24.803Z,11.97
2019-02-28T17:02:53.680Z,14.23
2019-02-28T17:05:26.698Z,16.97
2019-02-28T17:07:53.271Z,15.40
2019-02-28T17:10:26.043Z,12.40
2019-02-28T17:13:12.930Z,13.13
2019-02-28T17:16:04.322Z,14.00
2019-02-28T17:18:33.939Z,13.35
2019-02-28T17:21:02.808Z,21.87
2019-02-28T17:23:33.768Z,32.57
2019-02-28T17:26:02.277Z,32.97
2019-02-28T17:28:54.004Z,15.47
2019-02-28T17:31:57.120Z,17.07
2019-02-28T17:34:25.985Z,21.83
2019-02-28T17:36:54.844Z,16.60
2019-02-28T17:39:23.795Z,13.77
2019-02-28T17:41:52.727Z,18.87
2019-02-28T17:44:57.888Z,17.87
2019-02-28T17:48:12.705Z,16.17
2019-02-28T17:50:51.782Z,16.90
2019-02-28T17:53:45.639Z,16.53
2019-02-28T17:56:37.552Z,12.43
2019-02-28T17:59:44.188Z,13.43
2019-02-28T18:02:50.686Z,12.57
2019-02-28T18:05:33.813Z,15.60
2019-02-28T18:08:32.262Z,16.40
2019-02-28T18:11:34.110Z,13.20
2019-02-28T18:14:31.227Z,11.63
2019-02-28T18:17:35.195Z,9.30
2019-02-28T18:20:45.535Z,15.93
2019-02-28T18:23:27.894Z,5.90
2019-02-28T18:26:38.655Z,11.13
2019-02-28T18:29:34.205Z,8.60
2019-02-28T18:32:03.000Z,9.00
2019-02-28T18:34:34.054Z,8.37
2019-02-28T18:37:02.914Z,10.80
2019-02-28T18:39:31.681Z,12.67
2019-02-28T18:42:00.652Z,11.90
2019-02-28T18:44:29.516Z,6.10
2019-02-28T18:46:58.304Z,13.80
2019-02-28T18:49:29.413Z,7.30
2019-02-28T18:51:59.564Z,7.43
2019-02-28T18:54:28.091Z,14.40
2019-02-28T18:56:56.873Z,6.20
2019-02-28T18:59:25.649Z,6.43
2019-02-28T19:01:54.461Z,7.28
2019-02-28T19:04:23.315Z,6.43
2019-02-28T19:06:52.168Z,3.80
2019-02-28T19:09:22.784Z,10.63
2019-02-28T19:11:51.733Z,6.67
2019-02-28T19:14:20.571Z,4.57
2019-02-28T19:16:49.353Z,8.20
2019-02-28T19:19:18.131Z,6.00
2019-02-28T19:21:46.933Z,6.00
2019-02-28T19:24:15.713Z,6.30
2019-02-28T19:26:44.517Z,9.30
2019-02-28T19:29:13.935Z,9.33
2019-02-28T19:31:42.730Z,7.57
2019-02-28T19:34:11.503Z,4.00
2019-02-28T19:36:40.280Z,8.87
2019-02-28T19:39:09.070Z,4.63
2019-02-28T19:41:37.923Z,8.70
2019-02-28T19:44:06.685Z,5.63
2019-02-28T19:46:35.529Z,11.05
2019-02-28T19:49:04.422Z,2.73
2019-02-28T19:51:33.207Z,5.53
2019-02-28T19:54:02.068Z,4.20
2019-02-28T19:56:30.850Z,4.67
2019-02-28T19:58:59.640Z,5.17
2019-02-28T20:01:28.412Z,2.60
2019-02-28T20:03:57.211Z,2.80
2019-02-28T20:06:25.977Z,5.90
2019-02-28T20:08:54.754Z,7.20
2019-02-28T20:11:23.714Z,3.10
2019-02-28T20:13:52.514Z,3.30
2019-02-28T20:16:21.361Z,10.53
2019-02-28T20:18:50.472Z,4.37
2019-02-28T20:21:19.416Z,12.00
2019-02-28T20:23:48.355Z,7.50
2019-02-28T20:26:17.192Z,7.03
2019-02-28T20:28:46.943Z,4.67
2019-02-28T20:31:17.040Z,2.40
2019-02-28T20:33:46.956Z,2.40
2019-02-28T20:36:15.801Z,10.72
2019-02-28T20:38:44.615Z,2.67
2019-02-28T20:41:13.395Z,6.70
2019-02-28T20:43:42.193Z,7.57
2019-02-28T20:46:11.043Z,5.08
2019-02-28T20:48:39.921Z,4.73
2019-02-28T20:51:08.752Z,3.70
2019-02-28T20:53:37.535Z,10.40
2019-02-28T20:56:06.414Z,6.13
2019-02-28T20:58:35.202Z,4.87
2019-02-28T21:01:04.220Z,4.23
2019-02-28T21:03:33.056Z,4.23
2019-02-28T21:06:01.900Z,6.13
2019-02-28T21:08:30.764Z,4.60
2019-02-28T21:10:59.550Z,9.93
2019-02-28T21:13:28.341Z,7.67
2019-02-28T21:15:57.145Z,4.23
2019-02-28T21:18:25.997Z,3.30
2019-02-28T21:20:54.776Z,2.83
2019-02-28T21:23:23.628Z,9.23
2019-02-28T21:25:52.396Z,5.07
2019-02-28T21:28:21.291Z,4.93
2019-02-28T21:30:50.149Z,6.30
2019-02-28T21:33:18.933Z,4.30
2019-02-28T21:35:48.514Z,3.85
2019-02-28T21:38:17.358Z,5.00
2019-02-28T21:40:46.312Z,3.33
2019-02-28T21:43:15.182Z,5.30
2019-02-28T21:45:44.120Z,6.30
2019-02-28T21:48:12.976Z,4.63
2019-02-28T21:50:41.757Z,1.70
2019-02-28T21:53:10.568Z,4.03
2019-02-28T21:55:39.392Z,3.30
2019-02-28T21:58:08.182Z,2.40
2019-02-28T22:02:40.062Z,6.58
2019-02-28T22:05:10.600Z,5.67
2019-02-28T22:07:39.556Z,7.73
2019-02-28T22:10:09.537Z,3.00
2019-02-28T22:12:38.307Z,3.93
2019-02-28T22:15:10.534Z,2.70
2019-02-28T22:17:40.482Z,4.63
2019-02-28T22:20:11.084Z,4.23
2019-02-28T22:22:40.168Z,4.43
2019-02-28T22:25:10.231Z,9.87
2019-02-28T22:27:39.189Z,5.30
2019-02-28T22:30:29.099Z,2.93
2019-02-28T22:32:59.705Z,4.60
2019-02-28T22:35:34.596Z,4.53
2019-02-28T22:38:03.385Z,4.43
2019-02-28T22:40:32.232Z,3.63
2019-02-28T22:43:01.019Z,3.33
2019-02-28T22:45:29.807Z,9.03
2019-02-28T22:47:58.572Z,6.50
2019-02-28T22:50:27.347Z,6.20
2019-02-28T22:52:56.169Z,2.73
2019-02-28T22:55:25.052Z,2.40
2019-02-28T22:57:53.820Z,2.00
2019-02-28T23:01:07.128Z,4.70
2019-02-28T23:03:36.801Z,2.83
2019-02-28T23:06:06.237Z,3.03
2019-02-28T23:08:35.146Z,3.73
2019-02-28T23:11:04.303Z,6.03
2019-02-28T23:13:33.118Z,7.40
2019-02-28T23:16:01.961Z,3.83
2019-02-28T23:18:30.899Z,1.83
2019-02-28T23:20:59.672Z,11.40
2019-02-28T23:23:28.766Z,4.40
2019-02-28T23:26:08.827Z,4.97
2019-02-28T23:28:39.955Z,5.70
2019-02-28T23:32:20.796Z,5.90
2019-02-28T23:34:52.114Z,8.27
2019-02-28T23:37:21.637Z,7.80
2019-02-28T23:39:50.433Z,3.10
2019-02-28T23:42:19.261Z,5.97
2019-02-28T23:44:48.041Z,6.67
2019-02-28T23:47:16.811Z,5.87
2019-02-28T23:49:45.613Z,3.40
2019-02-28T23:52:14.438Z,6.37
2019-02-28T23:54:43.205Z,4.77
2019-02-28T23:57:12.011Z,3.70
2019-02-28T23:59:40.777Z,2.93
